Ewen, MI

5:44 PM EST on December 10, 2016 (GMT -0500)
Bergland Bay Bar | | Change Station
Active Advisory: Winter Weather Advisory

Elev 1299 ft 46.59 °N, 89.57 °W | Updated 27 seconds ago

Clear
Clear
3.9 °F
Feels Like 4 °F
N
0.0
Wind Variable Wind from NW
Gusts 1.0 mph

Today
High -- | Low -- °F
--% Chance of Precip.
Yesterday
High -- | Low -- °F
Precip. -- in
Pressure 30.28 in
Visibility 10.0 miles
Clouds Clear
Windchill 4 °F
Dew Point -1 °F
Humidity 80%
Rainfall 0.00 in
Snow Depth Not available.
8:30 AM 5:09 PM
Waxing Gibbous, 87% visible
METAR KLNL 102235Z AUTO 00000KT 10SM CLR M17/M19 A3028 RMK AO2 T11661187
Pressure 30.28 in
Visibility 10.0 miles
Clouds Clear
Windchill 4 °F
Dew Point -1 °F
Humidity 80%
Rainfall 0.00 in
Snow Depth Not available.
8:30 AM 5:09 PM
Waxing Gibbous, 87% visible
METAR KLNL 102235Z AUTO 00000KT 10SM CLR M17/M19 A3028 RMK AO2 T11661187

10-Day Weather Forecast

Almanac

Astronomy

Dec. 10, 2016 Rise Set
Actual Time
Civil Twilight
Nautical Twilight
Astronomical Twilight
Moon
Length of Visible Light
Length of Day
Tomorrow will be .
, % of the Moon is Illuminated

Today's Extremes

State Highs State Lows

Community

WunderPhotos

Upload Photos

1,956,671 photos uploaded!

WunderBlog® & News

Nearby

Air Quality

  Air Quality AQ Index Pollutant
Not available.

Snow Depth

Station Depth Elevation

Earthquake Activity

City Distance Mag. Time & Date
Minimum magnitude displayed is 2.5.

Coastal Water Temperatures

Place Temperature

Stations

Nearby Weather Stations

Station Location Temp. Windchill Dew Point Humidity Wind Precip. Elev Updated Type
                   

Watches & Warnings

Winter Weather Advisory
Issued: 2:42 PM CST Dec. 10, 2016 – National Weather Service

... Winter Weather Advisory in effect from 10 am EST /9 am CST/
Sunday to 1 am EST /midnight CST/ Monday...

The National Weather Service in Marquette has issued a Winter
Weather Advisory for snow, which is in effect from 10 am EST /9 am
CST/ Sunday to 1 am EST /midnight CST/ Monday.

Hazardous weather...

* widespread snow will move in on Sunday morning and continue
   through Sunday evening.

* Snow accumulations of 3 to 5 inches are expected. East to
   southeast winds off Lake Michigan may result in isolated higher
   snow amounts over south central Upper Michigan.

Impacts...

* roads will become snow covered and slippery.

* Visibility may be reduced to less than one-half mile during
   periods of moderate snow.

Precautionary/preparedness actions...

* a Winter Weather Advisory for snow means that periods of snow will
   cause primarily travel difficulties.



Jla